createdAt,value
2023-09-16T00:01:46.207Z,5.53
2023-09-16T00:04:13.249Z,5.97
2023-09-16T00:06:40.194Z,5.87
2023-09-16T00:09:07.071Z,5.80
2023-09-16T00:11:34.050Z,5.50
2023-09-16T00:14:01.383Z,5.80
2023-09-16T00:16:30.464Z,6.20
2023-09-16T00:21:26.096Z,6.73
2023-09-16T00:23:54.018Z,6.40
2023-09-16T00:26:21.176Z,6.43
2023-09-16T00:28:49.122Z,5.93
2023-09-16T00:31:17.252Z,6.40
2023-09-16T00:33:44.631Z,6.73
2023-09-16T00:36:11.522Z,6.00
2023-09-16T00:38:38.504Z,5.97
2023-09-16T00:41:05.378Z,6.47
2023-09-16T00:43:32.177Z,6.17
2023-09-16T00:45:59.033Z,6.20
2023-09-16T00:48:26.275Z,6.53
2023-09-16T00:50:53.542Z,6.33
2023-09-16T00:53:21.236Z,6.47
2023-09-16T00:55:49.460Z,7.13
2023-09-16T00:58:20.138Z,6.17
2023-09-16T01:00:48.091Z,6.13
2023-09-16T01:03:17.391Z,6.33
2023-09-16T01:05:48.216Z,6.57
2023-09-16T01:08:16.513Z,6.97
2023-09-16T01:10:43.734Z,6.83
2023-09-16T01:13:11.125Z,7.67
2023-09-16T01:15:47.704Z,7.23
2023-09-16T01:18:34.458Z,6.90
2023-09-16T01:21:04.870Z,7.47
2023-09-16T01:23:33.765Z,7.40
2023-09-16T01:26:02.604Z,7.10
2023-09-16T01:28:29.472Z,7.23
2023-09-16T01:30:57.163Z,7.77
2023-09-16T01:33:31.395Z,6.83
2023-09-16T01:36:05.120Z,6.80
2023-09-16T01:38:34.700Z,7.27
2023-09-16T01:41:03.319Z,6.87
2023-09-16T01:43:30.458Z,6.73
2023-09-16T01:45:57.434Z,6.27
2023-09-16T01:48:36.410Z,6.53
2023-09-16T01:51:07.609Z,6.80
2023-09-16T01:53:34.551Z,6.57
2023-09-16T01:56:01.678Z,7.27
2023-09-16T01:58:28.751Z,6.73
2023-09-16T02:00:56.099Z,6.77
2023-09-16T02:03:23.057Z,6.63
2023-09-16T02:05:49.957Z,6.73
2023-09-16T02:08:17.201Z,6.57
2023-09-16T02:10:44.223Z,6.90
2023-09-16T02:13:11.079Z,6.77
2023-09-16T02:15:37.957Z,6.83
2023-09-16T02:18:05.138Z,7.20
2023-09-16T02:20:34.498Z,7.03
2023-09-16T02:23:03.326Z,6.67
2023-09-16T02:25:30.352Z,7.07
2023-09-16T02:27:57.169Z,7.23
2023-09-16T02:30:24.331Z,7.17
2023-09-16T02:32:51.531Z,7.43
2023-09-16T02:35:19.719Z,7.33
2023-09-16T02:37:46.534Z,6.97
2023-09-16T02:40:13.382Z,6.70
2023-09-16T02:42:40.244Z,6.30
2023-09-16T02:45:07.629Z,6.97
2023-09-16T02:47:35.680Z,7.30
2023-09-16T02:50:03.669Z,7.00
2023-09-16T02:52:31.794Z,7.63
2023-09-16T02:54:59.002Z,6.63
2023-09-16T02:57:25.944Z,6.50
2023-09-16T02:59:53.552Z,7.33
2023-09-16T03:02:21.503Z,7.07
2023-09-16T03:04:48.490Z,6.83
2023-09-16T03:07:15.646Z,7.57
2023-09-16T03:09:43.183Z,6.90
2023-09-16T03:12:12.217Z,6.60
2023-09-16T03:14:39.466Z,7.37
2023-09-16T03:17:07.401Z,6.50
2023-09-16T03:19:36.092Z,7.20
2023-09-16T03:22:03.222Z,6.90
2023-09-16T03:24:31.194Z,7.20
2023-09-16T03:26:58.255Z,6.80
2023-09-16T03:29:25.579Z,7.40
2023-09-16T03:31:53.748Z,7.20
2023-09-16T03:34:22.113Z,6.60
2023-09-16T03:36:49.187Z,6.97
2023-09-16T03:39:16.350Z,6.60
2023-09-16T03:41:43.321Z,6.63
2023-09-16T03:44:12.307Z,6.37
2023-09-16T03:46:42.919Z,6.63
2023-09-16T03:49:10.567Z,7.30
2023-09-16T03:51:41.129Z,6.93
2023-09-16T03:54:11.186Z,6.47
2023-09-16T03:56:38.804Z,6.60
2023-09-16T03:59:06.446Z,6.73
2023-09-16T04:01:33.686Z,6.67
2023-09-16T04:04:00.715Z,6.73
2023-09-16T04:06:27.701Z,7.03
2023-09-16T04:08:54.957Z,7.43
2023-09-16T04:11:22.722Z,6.97
2023-09-16T04:13:50.034Z,6.97
2023-09-16T04:16:17.283Z,6.63
2023-09-16T04:18:44.198Z,7.27
2023-09-16T04:21:11.134Z,7.33
2023-09-16T04:23:38.008Z,6.97
2023-09-16T04:26:10.014Z,6.80
2023-09-16T04:28:37.482Z,7.17
2023-09-16T04:31:05.636Z,6.80
2023-09-16T04:33:36.294Z,6.47
2023-09-16T04:36:05.151Z,6.17
2023-09-16T04:38:33.153Z,6.33
2023-09-16T04:41:01.242Z,6.07
2023-09-16T04:43:28.613Z,6.10
2023-09-16T04:45:56.039Z,6.13
2023-09-16T04:48:34.707Z,6.50
2023-09-16T04:51:04.665Z,5.90
2023-09-16T04:53:33.181Z,6.10
2023-09-16T04:56:01.607Z,7.00
2023-09-16T04:58:30.586Z,6.67
2023-09-16T05:01:02.431Z,6.00
2023-09-16T05:03:29.598Z,5.93
2023-09-16T05:05:56.730Z,6.30
2023-09-16T05:08:28.148Z,6.07
2023-09-16T05:10:57.055Z,6.43
2023-09-16T05:13:24.820Z,6.13
2023-09-16T05:15:53.014Z,6.67
2023-09-16T05:18:20.098Z,6.50
2023-09-16T05:20:50.746Z,6.50
2023-09-16T05:23:18.328Z,6.57
2023-09-16T05:25:46.877Z,6.60
2023-09-16T05:28:16.290Z,6.57
2023-09-16T05:30:43.788Z,6.27
2023-09-16T05:33:11.809Z,7.00
2023-09-16T05:35:42.907Z,6.80
2023-09-16T05:38:11.972Z,6.80
2023-09-16T05:40:39.115Z,7.30
2023-09-16T05:43:06.907Z,7.10
2023-09-16T05:45:34.004Z,6.07
2023-09-16T05:48:04.171Z,6.53
2023-09-16T05:50:33.611Z,6.63
2023-09-16T05:53:00.726Z,6.07
2023-09-16T05:55:27.759Z,6.37
2023-09-16T05:57:55.598Z,6.77
2023-09-16T06:00:22.564Z,6.63
2023-09-16T06:02:51.250Z,6.50
2023-09-16T06:05:18.122Z,6.50
2023-09-16T06:07:46.698Z,6.80
2023-09-16T06:10:13.724Z,6.60
2023-09-16T06:12:40.791Z,6.67
2023-09-16T06:15:09.287Z,7.23
2023-09-16T06:17:37.054Z,7.23
2023-09-16T06:20:04.686Z,6.77
2023-09-16T06:22:31.848Z,7.53
2023-09-16T06:24:59.014Z,6.47
2023-09-16T06:27:27.040Z,6.93
2023-09-16T06:29:54.370Z,7.70
2023-09-16T06:32:22.833Z,7.30
2023-09-16T06:34:53.900Z,6.87
2023-09-16T06:37:20.732Z,8.97
2023-09-16T06:39:49.010Z,8.43
2023-09-16T06:42:19.364Z,8.63
2023-09-16T06:44:50.637Z,8.23
2023-09-16T06:47:17.491Z,7.87
2023-09-16T06:49:44.363Z,7.80
2023-09-16T06:52:11.278Z,7.83
2023-09-16T06:54:38.219Z,8.07
2023-09-16T06:57:05.154Z,9.07
2023-09-16T06:59:32.017Z,8.50
2023-09-16T07:01:59.113Z,9.13
2023-09-16T07:04:29.100Z,8.40
2023-09-16T07:06:56.191Z,9.57
2023-09-16T07:09:23.963Z,8.43
2023-09-16T07:11:50.908Z,9.17
2023-09-16T07:14:17.784Z,9.13
2023-09-16T07:16:44.740Z,9.27
2023-09-16T07:19:11.751Z,9.67
2023-09-16T07:21:38.701Z,9.60
2023-09-16T07:24:06.716Z,9.90
2023-09-16T07:26:33.880Z,9.50
2023-09-16T07:29:01.153Z,10.23
2023-09-16T07:31:28.263Z,11.07
2023-09-16T07:33:55.643Z,10.97
2023-09-16T07:36:22.919Z,11.37
2023-09-16T07:38:50.004Z,10.50
2023-09-16T07:41:17.152Z,10.17
2023-09-16T07:43:43.999Z,11.43
2023-09-16T07:46:10.971Z,10.37
2023-09-16T07:48:38.005Z,11.53
2023-09-16T07:51:04.898Z,11.27
2023-09-16T07:53:31.752Z,10.90
2023-09-16T07:55:58.674Z,12.20
2023-09-16T07:58:25.693Z,11.40
2023-09-16T08:00:53.544Z,11.37
2023-09-16T08:03:20.902Z,12.17
2023-09-16T08:05:47.999Z,13.83
2023-09-16T08:08:14.896Z,12.13
2023-09-16T08:10:45.583Z,12.53
2023-09-16T08:13:12.649Z,12.77
2023-09-16T08:15:39.646Z,12.67
2023-09-16T08:18:06.647Z,11.33
2023-09-16T08:20:33.564Z,11.57
2023-09-16T08:23:00.515Z,13.33
2023-09-16T08:25:27.514Z,12.93
2023-09-16T08:27:54.563Z,15.30
2023-09-16T08:30:22.601Z,18.60
2023-09-16T08:32:49.907Z,16.50
2023-09-16T08:35:16.879Z,14.07
2023-09-16T08:37:43.870Z,14.80
2023-09-16T08:40:11.213Z,14.80
2023-09-16T08:42:42.561Z,12.70
2023-09-16T08:45:15.540Z,12.63
2023-09-16T08:47:46.931Z,14.27
2023-09-16T08:50:16.542Z,12.37
2023-09-16T08:52:49.970Z,11.23
2023-09-16T08:55:17.646Z,13.03
2023-09-16T08:57:50.653Z,13.53
2023-09-16T09:00:18.226Z,13.70
2023-09-16T09:02:46.045Z,12.43
2023-09-16T09:05:13.561Z,11.47
2023-09-16T09:07:42.184Z,11.77
2023-09-16T09:10:12.332Z,11.60
2023-09-16T09:12:41.121Z,10.67
2023-09-16T09:15:15.110Z,9.57
2023-09-16T09:18:00.419Z,9.77
2023-09-16T09:20:28.955Z,10.60
2023-09-16T09:22:57.036Z,10.67
2023-09-16T09:25:26.005Z,10.90
2023-09-16T09:27:54.646Z,10.20
2023-09-16T09:30:28.120Z,9.43
2023-09-16T09:32:59.431Z,11.47
2023-09-16T09:35:30.823Z,10.57
2023-09-16T09:37:58.880Z,10.50
2023-09-16T09:40:26.001Z,9.90
2023-09-16T09:42:55.029Z,9.40
2023-09-16T09:45:24.090Z,10.30
2023-09-16T09:47:52.984Z,10.00
2023-09-16T09:50:21.584Z,10.63
2023-09-16T09:52:51.456Z,9.57
2023-09-16T09:55:19.621Z,9.50
2023-09-16T09:57:52.066Z,9.83
2023-09-16T10:00:21.397Z,9.37
2023-09-16T10:02:49.280Z,9.40
2023-09-16T10:05:23.553Z,9.10
2023-09-16T10:07:52.945Z,8.47
2023-09-16T10:10:21.460Z,8.30
2023-09-16T10:12:51.765Z,9.37
2023-09-16T10:15:23.239Z,9.43
2023-09-16T10:17:50.431Z,9.90
2023-09-16T10:20:17.972Z,9.73
2023-09-16T10:22:45.568Z,9.20
2023-09-16T10:25:17.573Z,8.03
2023-09-16T10:28:02.867Z,9.07
2023-09-16T10:30:31.673Z,8.52
2023-09-16T10:33:07.162Z,8.65
2023-09-16T10:35:38.422Z,8.65
2023-09-16T10:38:07.518Z,7.85
2023-09-16T10:40:35.011Z,7.40
2023-09-16T10:43:06.071Z,8.18
2023-09-16T10:45:33.396Z,7.45
2023-09-16T10:48:03.949Z,6.95
2023-09-16T10:50:37.694Z,6.88
2023-09-16T10:53:21.335Z,6.85
2023-09-16T10:56:06.207Z,6.38
2023-09-16T10:58:49.390Z,6.28
2023-09-16T11:01:27.591Z,6.10
2023-09-16T11:03:59.199Z,6.28
2023-09-16T11:06:26.578Z,6.20
2023-09-16T11:08:53.612Z,5.82
2023-09-16T11:11:22.222Z,5.22
2023-09-16T11:13:49.791Z,5.68
2023-09-16T11:16:16.736Z,5.20
2023-09-16T11:18:44.853Z,4.97
2023-09-16T11:21:13.397Z,5.60
2023-09-16T11:23:40.385Z,4.72
2023-09-16T11:26:07.514Z,4.50
2023-09-16T11:28:36.745Z,4.80
2023-09-16T11:31:03.770Z,5.22
2023-09-16T11:33:34.907Z,4.40
2023-09-16T11:36:12.206Z,4.07
2023-09-16T11:38:52.721Z,4.72
2023-09-16T11:41:19.908Z,4.07
2023-09-16T11:43:47.252Z,4.85
2023-09-16T11:46:14.301Z,4.88
2023-09-16T11:49:08.792Z,4.47
2023-09-16T11:51:38.795Z,4.25
2023-09-16T11:54:06.230Z,3.80
2023-09-16T11:56:37.073Z,4.22
2023-09-16T11:59:04.923Z,4.00
2023-09-16T12:01:34.389Z,3.92
2023-09-16T12:04:05.168Z,4.43
2023-09-16T12:06:36.075Z,3.73
2023-09-16T12:09:05.404Z,3.43
2023-09-16T12:11:33.895Z,3.80
2023-09-16T12:14:02.037Z,3.83
2023-09-16T12:16:29.363Z,4.03
2023-09-16T12:18:57.042Z,3.10
2023-09-16T12:21:24.293Z,3.03
2023-09-16T12:23:53.487Z,2.83
2023-09-16T12:26:21.126Z,2.90
2023-09-16T12:28:48.958Z,2.97
2023-09-16T12:31:22.884Z,3.03
2023-09-16T12:33:55.564Z,3.13
2023-09-16T12:36:28.755Z,3.00
2023-09-16T12:39:02.149Z,3.00
2023-09-16T12:41:30.238Z,2.92
2023-09-16T12:43:59.314Z,2.80
2023-09-16T12:46:29.310Z,3.03
2023-09-16T12:48:57.248Z,2.77
2023-09-16T12:51:25.246Z,2.93
2023-09-16T12:53:53.924Z,3.10
2023-09-16T12:56:21.199Z,3.03
2023-09-16T12:58:52.385Z,2.47
2023-09-16T13:01:21.658Z,2.70
2023-09-16T13:03:50.041Z,2.70
2023-09-16T13:06:18.510Z,2.53
2023-09-16T13:08:46.978Z,2.90
2023-09-16T13:11:15.559Z,2.77
2023-09-16T13:13:42.879Z,2.90
2023-09-16T13:16:12.144Z,2.80
2023-09-16T13:18:40.648Z,2.93
2023-09-16T13:21:07.906Z,2.90
2023-09-16T13:23:35.542Z,2.73
2023-09-16T13:26:11.512Z,2.87
2023-09-16T13:28:39.171Z,2.90
2023-09-16T13:31:06.387Z,3.00
2023-09-16T13:34:11.974Z,3.10
2023-09-16T13:36:39.868Z,3.03
2023-09-16T13:39:09.047Z,2.70
2023-09-16T13:41:38.018Z,2.57
2023-09-16T13:44:06.520Z,2.57
2023-09-16T13:46:34.037Z,2.70
2023-09-16T13:49:01.178Z,3.10
2023-09-16T13:51:28.420Z,3.20
2023-09-16T13:53:55.669Z,3.27
2023-09-16T13:56:25.052Z,2.83
2023-09-16T13:58:52.330Z,2.70
2023-09-16T14:01:19.785Z,2.57
2023-09-16T14:03:47.021Z,2.97
2023-09-16T14:06:14.241Z,2.93
2023-09-16T14:08:41.122Z,3.10
2023-09-16T14:11:08.100Z,3.17
2023-09-16T14:13:35.008Z,3.17
2023-09-16T14:16:02.085Z,3.17
2023-09-16T14:18:29.105Z,3.23
2023-09-16T14:20:56.098Z,2.60
2023-09-16T14:23:23.017Z,3.10
2023-09-16T14:25:50.002Z,3.27
2023-09-16T14:28:16.989Z,3.43
2023-09-16T14:30:44.041Z,2.77
2023-09-16T14:33:10.987Z,2.77
2023-09-16T14:35:37.979Z,3.80
2023-09-16T14:38:05.373Z,3.30
2023-09-16T14:40:36.069Z,3.13
2023-09-16T14:43:03.740Z,3.30
2023-09-16T14:45:30.744Z,3.27
2023-09-16T14:47:57.912Z,2.50
2023-09-16T14:50:24.921Z,3.00
2023-09-16T14:52:51.936Z,3.00
2023-09-16T14:55:19.348Z,3.37
2023-09-16T14:57:47.000Z,3.17
2023-09-16T15:00:14.440Z,3.17
2023-09-16T15:02:43.453Z,3.23
2023-09-16T15:05:11.091Z,3.43
2023-09-16T15:07:39.306Z,3.37
2023-09-16T15:10:08.623Z,2.67
2023-09-16T15:12:35.563Z,3.10
2023-09-16T15:15:02.808Z,2.90
2023-09-16T15:17:29.748Z,2.90
2023-09-16T15:19:56.647Z,3.00
2023-09-16T15:22:25.749Z,3.30
2023-09-16T15:24:53.094Z,2.87
2023-09-16T15:27:21.301Z,3.27
2023-09-16T15:29:48.454Z,3.10
2023-09-16T15:32:43.445Z,3.10
2023-09-16T15:35:02.762Z,3.23
2023-09-16T15:37:30.598Z,3.10
2023-09-16T15:39:58.063Z,3.27
2023-09-16T15:42:25.064Z,3.50
2023-09-16T15:44:51.989Z,2.90
2023-09-16T15:47:18.990Z,3.47
2023-09-16T15:49:46.009Z,3.07
2023-09-16T15:52:13.210Z,3.10
2023-09-16T15:54:40.139Z,3.87
2023-09-16T15:57:07.066Z,3.27
2023-09-16T15:59:34.069Z,3.50
2023-09-16T16:02:01.154Z,3.57
2023-09-16T16:04:28.336Z,3.90
2023-09-16T16:06:55.319Z,4.80
2023-09-16T16:09:22.583Z,3.70
2023-09-16T16:11:49.481Z,3.50
2023-09-16T16:14:16.358Z,3.53
2023-09-16T16:16:43.455Z,3.03
2023-09-16T16:19:12.482Z,3.70
2023-09-16T16:21:39.492Z,3.43
2023-09-16T16:24:06.918Z,3.73
2023-09-16T16:26:34.264Z,3.57
2023-09-16T16:29:01.854Z,3.53
2023-09-16T16:31:29.429Z,4.20
2023-09-16T16:33:58.667Z,3.50
2023-09-16T16:36:25.715Z,4.10
2023-09-16T16:38:52.738Z,4.13
2023-09-16T16:41:21.024Z,3.67
2023-09-16T16:43:49.857Z,3.47
2023-09-16T16:46:17.934Z,3.40
2023-09-16T16:48:45.152Z,4.13
2023-09-16T16:51:14.623Z,3.67
2023-09-16T16:53:42.740Z,4.00
2023-09-16T16:56:09.720Z,3.30
2023-09-16T16:58:38.598Z,4.27
2023-09-16T17:01:05.788Z,3.63
2023-09-16T17:03:32.916Z,4.20
2023-09-16T17:05:59.924Z,3.70
2023-09-16T17:08:26.845Z,4.20
2023-09-16T17:10:53.797Z,4.10
2023-09-16T17:13:20.843Z,4.90
2023-09-16T17:15:47.770Z,4.07
2023-09-16T17:18:14.705Z,4.40
2023-09-16T17:20:41.846Z,4.00
2023-09-16T17:23:08.851Z,4.30
2023-09-16T17:25:36.761Z,4.00
2023-09-16T17:28:06.189Z,4.53
2023-09-16T17:30:36.164Z,3.90
2023-09-16T17:33:04.635Z,3.90
2023-09-16T17:35:32.197Z,3.80
2023-09-16T17:37:59.250Z,3.97
2023-09-16T17:40:26.150Z,4.00
2023-09-16T17:42:53.125Z,4.20
2023-09-16T17:45:20.077Z,4.07
2023-09-16T17:47:47.078Z,4.20
2023-09-16T17:50:14.142Z,3.70
2023-09-16T17:52:42.139Z,3.43
2023-09-16T17:55:09.558Z,4.10
2023-09-16T17:57:36.585Z,4.00
2023-09-16T18:00:03.838Z,4.70
2023-09-16T18:02:41.182Z,4.37
2023-09-16T18:05:08.334Z,4.00
2023-09-16T18:07:35.955Z,3.83
2023-09-16T18:10:04.454Z,4.97
2023-09-16T18:12:31.784Z,5.10
2023-09-16T18:14:59.074Z,4.83
2023-09-16T18:17:26.422Z,4.40
2023-09-16T18:19:53.323Z,4.90
2023-09-16T18:22:20.304Z,4.20
2023-09-16T18:24:47.376Z,5.70
2023-09-16T18:27:14.794Z,5.00
2023-09-16T18:29:41.763Z,5.80
2023-09-16T18:32:08.751Z,5.90
2023-09-16T18:34:35.870Z,5.50
2023-09-16T18:37:03.038Z,5.27
2023-09-16T18:39:31.281Z,5.50
2023-09-16T18:41:58.244Z,5.93
2023-09-16T18:44:25.672Z,4.70
2023-09-16T18:46:52.921Z,5.27
2023-09-16T18:49:20.140Z,5.53
2023-09-16T18:51:47.252Z,5.60
2023-09-16T18:54:14.286Z,5.57
2023-09-16T18:56:41.242Z,5.43
2023-09-16T18:59:08.120Z,6.00
2023-09-16T19:01:35.159Z,5.20
2023-09-16T19:04:02.565Z,5.87
2023-09-16T19:06:29.588Z,4.70
2023-09-16T19:08:56.494Z,4.93
2023-09-16T19:11:25.683Z,5.23
2023-09-16T19:13:53.106Z,5.63
2023-09-16T19:18:47.261Z,5.90
2023-09-16T19:21:14.328Z,6.00
2023-09-16T19:23:42.810Z,5.30
2023-09-16T19:26:09.868Z,5.30
2023-09-16T19:28:36.812Z,5.40
2023-09-16T19:31:04.323Z,5.90
2023-09-16T19:33:31.496Z,5.70
2023-09-16T19:36:01.510Z,6.07
2023-09-16T19:38:28.612Z,6.28
2023-09-16T19:40:56.889Z,7.10
2023-09-16T19:43:24.240Z,5.87
2023-09-16T19:46:00.752Z,6.53
2023-09-16T19:48:27.965Z,5.80
2023-09-16T19:50:54.815Z,5.30
2023-09-16T19:53:21.864Z,5.40
2023-09-16T19:55:48.734Z,5.43
2023-09-16T19:58:15.659Z,6.15
2023-09-16T20:00:42.614Z,6.13
2023-09-16T20:03:09.859Z,5.67
2023-09-16T20:05:38.111Z,5.53
2023-09-16T20:08:06.351Z,5.50
2023-09-16T20:10:34.245Z,5.80
2023-09-16T20:13:01.244Z,6.57
2023-09-16T20:15:28.661Z,6.13
2023-09-16T20:17:55.666Z,7.10
2023-09-16T20:20:22.562Z,6.57
2023-09-16T20:22:49.543Z,6.23
2023-09-16T20:25:16.562Z,6.20
2023-09-16T20:27:43.935Z,6.93
2023-09-16T20:30:11.579Z,6.47
2023-09-16T20:32:38.630Z,7.40
2023-09-16T20:35:05.799Z,7.20
2023-09-16T20:37:32.702Z,7.73
2023-09-16T20:40:00.283Z,7.83
2023-09-16T20:42:28.893Z,7.47
2023-09-16T20:44:56.042Z,7.30
2023-09-16T20:47:23.030Z,7.20
2023-09-16T20:49:49.981Z,8.03
2023-09-16T20:52:17.044Z,7.10
2023-09-16T20:54:45.421Z,7.23
2023-09-16T20:57:12.317Z,7.97
2023-09-16T20:59:39.226Z,6.93
2023-09-16T21:02:06.211Z,6.70
2023-09-16T21:04:33.488Z,7.53
2023-09-16T21:07:00.409Z,6.93
2023-09-16T21:09:27.246Z,7.57
2023-09-16T21:11:54.118Z,7.77
2023-09-16T21:14:21.071Z,8.27
2023-09-16T21:16:48.100Z,9.00
2023-09-16T21:19:15.143Z,8.47
2023-09-16T21:21:43.069Z,7.80
2023-09-16T21:24:10.086Z,7.33
2023-09-16T21:26:36.969Z,7.27
2023-09-16T21:29:04.398Z,6.77
2023-09-16T21:31:31.561Z,7.03
2023-09-16T21:33:58.579Z,7.63
2023-09-16T21:36:25.689Z,7.10
2023-09-16T21:38:52.660Z,7.33
2023-09-16T21:41:19.814Z,7.77
2023-09-16T21:43:47.880Z,7.93
2023-09-16T21:46:17.415Z,8.50
2023-09-16T21:48:44.730Z,7.87
2023-09-16T21:51:11.695Z,8.97
2023-09-16T21:53:38.689Z,8.97
2023-09-16T21:56:05.651Z,8.47
2023-09-16T21:58:32.536Z,8.23
2023-09-16T22:00:59.648Z,8.17
2023-09-16T22:03:26.703Z,8.73
2023-09-16T22:05:54.809Z,9.20
2023-09-16T22:08:21.766Z,8.33
2023-09-16T22:10:48.816Z,9.10
2023-09-16T22:13:15.718Z,8.43
2023-09-16T22:15:42.886Z,8.30
2023-09-16T22:18:09.842Z,8.40
2023-09-16T22:20:39.400Z,8.97
2023-09-16T22:23:06.418Z,8.47
2023-09-16T22:25:33.333Z,8.60
2023-09-16T22:28:00.303Z,9.70
2023-09-16T22:30:27.176Z,9.70
2023-09-16T22:32:54.600Z,9.40
2023-09-16T22:35:21.649Z,9.23
2023-09-16T22:37:48.524Z,10.07
2023-09-16T22:40:15.489Z,10.80
2023-09-16T22:42:43.643Z,9.63
2023-09-16T22:45:11.759Z,10.30
2023-09-16T22:47:38.765Z,10.13
2023-09-16T22:50:06.554Z,10.50
2023-09-16T22:52:33.677Z,10.43
2023-09-16T22:55:01.338Z,10.60
2023-09-16T22:57:28.280Z,10.67
2023-09-16T22:59:56.138Z,10.90
2023-09-16T23:02:24.463Z,9.83
2023-09-16T23:04:52.037Z,10.57
2023-09-16T23:07:19.773Z,11.10
2023-09-16T23:09:46.832Z,11.07
2023-09-16T23:12:13.748Z,11.90
2023-09-16T23:14:40.782Z,12.80
2023-09-16T23:17:08.559Z,11.37
2023-09-16T23:19:35.775Z,11.60
2023-09-16T23:22:02.827Z,12.83
2023-09-16T23:24:29.753Z,12.17
2023-09-16T23:26:56.698Z,13.13
2023-09-16T23:29:23.932Z,12.27
2023-09-16T23:31:51.323Z,12.30
2023-09-16T23:34:18.774Z,11.47
2023-09-16T23:36:45.660Z,12.67
2023-09-16T23:39:12.609Z,11.47
2023-09-16T23:41:39.562Z,13.23
2023-09-16T23:44:07.561Z,12.60
2023-09-16T23:46:36.093Z,12.50
2023-09-16T23:49:03.688Z,12.53
2023-09-16T23:51:30.776Z,12.17
2023-09-16T23:53:57.961Z,12.87
2023-09-16T23:56:25.585Z,13.17
2023-09-16T23:58:52.604Z,13.03
